Farmington ASC

April 5, 2020, 11 a.m.

  • imperial
Air Temperature RH Dewpoint Wind Chill Heat Index Wind Speed Wind Direction Precipitation Solar Radiation Soil Temperature
Date Time Max Mean Mean Total Total
US/Mountain F % F F F MPH MPH MPH deg. deg. in. MJ/m^2 F
2020-04-04 11:00 56.66 22.88 19.13 56.66 56.66 12.77 14.56 7.36 223.5 204.0 0.0 0.215 49.62
2020-04-04 11:05 58.19 22.51 20.03 58.19 58.19 15.64 15.82 10.42 213.8 205.0 0.0 0.218 49.84
2020-04-04 11:10 57.65 22.65 19.72 57.65 57.65 9.04 15.1 10.87 235.0 223.6 0.0 0.221 50.07
2020-04-04 11:15 57.96 22.37 19.69 57.96 57.96 9.57 11.52 8.55 266.5 256.2 0.0 0.224 50.31
2020-04-04 11:20 57.96 24.07 21.41 57.96 57.96 8.12 13.31 9.48 235.5 252.6 0.0 0.227 50.56
2020-04-04 11:25 58.68 21.93 19.83 58.68 58.68 15.46 15.46 8.43 243.5 229.2 0.0 0.23 50.77
2020-04-04 11:30 57.94 22.13 19.42 57.94 57.94 5.46 14.74 10.07 244.8 242.8 0.0 0.233 51.03
2020-04-04 11:35 57.69 23.63 20.75 57.69 57.69 2.95 10.09 5.46 273.6 230.9 0.0 0.235 51.31
2020-04-04 11:40 57.99 22.2 19.54 57.99 57.99 7.96 13.49 7.34 223.2 220.1 0.0 0.238 51.58
2020-04-04 11:45 58.37 22.41 20.08 58.37 58.37 10.63 12.42 9.89 269.3 254.7 0.0 0.24 51.84
2020-04-04 11:50 58.55 22.2 20.01 58.55 58.55 8.86 10.98 8.66 279.8 271.2 0.0 0.242 52.12
2020-04-04 11:55 57.56 22.88 19.89 57.56 57.56 4.38 8.12 6.15 266.2 261.4 0.0 0.245 52.38
2020-04-04 12:00 57.92 22.91 20.22 57.92 57.92 5.82 7.96 5.44 331.6 283.3 0.0 0.247 52.68
2020-04-04 12:05 59.09 22.64 20.93 59.09 59.09 7.25 9.04 3.91 201.5 255.5 0.0 0.25 52.97
2020-04-04 12:10 60.3 20.81 19.96 60.3 60.3 9.57 15.46 10.22 203.9 216.0 0.0 0.253 53.29
2020-04-04 12:15 59.38 21.62 20.08 59.38 59.38 11.7 16.71 10.49 200.1 201.1 0.0 0.255 53.6
2020-04-04 12:20 59.2 21.76 20.09 59.2 59.2 6.71 14.38 8.93 251.8 213.8 0.0 0.255 53.89
2020-04-04 12:25 59.63 20.3 18.82 59.63 59.63 7.78 10.63 7.16 275.7 200.2 0.0 0.256 54.19
2020-04-04 12:30 59.99 22.1 21.11 59.99 59.99 8.48 11.34 7.0 285.0 291.0 0.0 0.259 54.45
2020-04-04 12:35 59.81 22.13 21.0 59.81 59.81 4.92 10.09 5.68 293.1 278.5 0.0 0.263 54.7
2020-04-04 12:40 58.84 23.25 21.34 58.84 58.84 5.28 11.34 7.38 220.2 277.6 0.0 0.169 54.97
2020-04-04 12:45 60.49 23.01 22.49 60.49 60.49 6.35 7.61 3.96 235.7 212.3 0.0 0.272 55.26
2020-04-04 12:50 59.68 20.87 19.51 59.68 59.68 5.64 15.99 9.04 276.1 259.0 0.0 0.191 55.53
2020-04-04 12:55 59.58 20.57 19.08 59.58 59.58 7.25 11.16 6.69 234.5 236.6 0.0 0.182 55.8
2020-04-04 13:00 60.49 20.91 20.23 60.49 60.49 3.67 9.04 5.17 223.6 275.2 0.0 0.276 56.07
2020-04-04 13:05 61.29 19.14 18.82 61.29 61.29 8.68 14.74 8.97 203.4 222.6 0.0 0.277 56.32
2020-04-04 13:10 61.52 19.68 19.66 61.52 61.52 4.56 14.38 10.6 229.5 205.8 0.0 0.281 56.53
2020-04-04 13:15 61.03 18.16 17.39 61.03 61.03 5.28 9.91 6.49 164.7 213.5 0.0 0.282 56.77
2020-04-04 13:20 61.83 18.43 18.38 61.83 61.83 6.53 7.07 3.44 254.0 235.5 0.0 0.277 57.0
2020-04-04 13:25 61.21 20.02 19.81 61.21 61.21 9.04 12.77 7.52 288.3 256.7 0.0 0.278 57.2
2020-04-04 13:30 61.29 18.83 18.44 61.29 61.29 4.56 9.91 5.86 288.5 269.8 0.0 0.223 57.45
2020-04-04 13:35 61.21 18.33 17.75 61.21 61.21 2.77 9.91 5.73 192.2 225.6 0.0 0.186 57.69
2020-04-04 13:40 61.11 18.05 17.31 61.11 61.11 5.1 12.06 6.15 263.7 226.7 0.0 0.166 57.92
2020-04-04 13:45 62.26 16.97 16.82 62.26 62.26 9.04 11.88 5.7 256.0 259.5 0.0 0.279 58.1
2020-04-04 13:50 62.87 16.56 16.75 62.87 62.87 8.48 12.42 9.98 251.1 271.1 0.0 0.29 58.33
2020-04-04 13:55 62.51 16.29 16.08 62.51 62.51 6.89 13.67 8.21 183.3 217.7 0.0 0.281 58.5
2020-04-04 14:00 63.3 16.49 17.01 63.3 63.3 10.27 16.17 8.55 198.5 187.3 0.0 0.273 58.68
2020-04-04 14:05 64.09 16.56 17.75 64.09 64.09 8.48 11.34 8.17 189.1 184.6 0.0 0.276 58.87
2020-04-04 14:10 63.54 17.92 19.13 63.54 63.54 12.24 15.1 11.41 236.6 245.9 0.0 0.286 59.07
2020-04-04 14:15 64.56 14.89 15.67 64.56 64.56 9.57 15.82 11.07 236.4 240.9 0.0 0.283 59.25
2020-04-04 14:20 63.64 15.54 15.91 63.64 63.64 7.61 13.67 9.37 180.8 198.5 0.0 0.205 59.45
2020-04-04 14:25 62.55 16.08 15.81 62.55 62.55 9.22 17.25 8.66 225.7 197.8 0.0 0.205 59.61
2020-04-04 14:30 61.93 17.57 17.36 61.93 61.93 12.06 14.56 10.87 228.0 223.0 0.0 0.183 59.79
2020-04-04 14:35 61.02 18.73 18.09 61.02 61.02 3.13 12.95 8.05 293.6 236.1 0.0 0.112 59.92
2020-04-04 14:40 61.45 17.34 16.66 61.45 61.45 12.06 13.67 7.07 196.9 239.1 0.0 0.091 60.04
2020-04-04 14:45 61.81 17.95 17.75 61.81 61.81 8.12 11.52 7.56 210.9 214.3 0.0 0.105 60.12
2020-04-04 14:50 63.05 16.32 16.56 63.05 63.05 7.61 11.7 6.29 199.5 188.2 0.0 0.226 60.15
2020-04-04 14:55 64.45 15.85 17.02 64.45 64.45 4.74 7.61 4.94 293.3 190.0 0.0 0.296 60.17
2020-04-04 15:00 64.76 15.98 17.46 64.76 64.76 11.34 11.34 4.56 257.0 240.3 0.0 0.305 60.19
2020-04-04 15:05 64.27 16.19 17.37 64.27 64.27 9.4 13.13 8.55 278.8 256.0 0.0 0.24 60.21
2020-04-04 15:10 65.55 14.21 15.39 65.55 65.55 15.99 15.99 11.97 260.9 260.2 0.0 0.266 60.28
2020-04-04 15:15 64.8 16.11 17.68 64.8 64.8 10.8 14.56 10.51 244.7 266.7 0.0 0.23 60.35
2020-04-04 15:20 63.64 16.04 16.64 63.64 63.64 9.04 15.46 11.79 220.8 223.3 0.0 0.156 60.48
2020-04-04 15:25 64.0 16.49 17.58 64.0 64.0 6.0 13.13 6.62 235.9 205.6 0.0 0.23 60.57
2020-04-04 15:30 62.47 16.89 16.89 62.47 62.47 11.16 11.34 8.66 256.7 239.9 0.0 0.097 60.67
2020-04-04 15:35 64.24 15.67 16.58 64.24 64.24 10.45 10.45 6.96 243.1 248.7 0.0 0.253 60.75
2020-04-04 15:40 64.72 15.74 17.08 64.72 64.72 4.74 10.63 4.9 275.6 255.7 0.0 0.248 60.82
2020-04-04 15:45 64.67 15.67 16.93 64.67 64.67 9.73 11.34 7.29 299.9 272.7 0.0 0.245 60.87
2020-04-04 15:50 63.45 16.35 16.93 63.45 63.45 4.03 9.57 7.0 244.6 286.0 0.0 0.155 60.91
2020-04-04 15:55 63.01 16.21 16.38 63.01 63.01 4.92 5.28 3.36 26.1 275.1 0.0 0.097 60.94
2020-04-04 16:00 65.1 15.87 17.58 65.1 65.1 5.1 5.28 3.78 273.2 322.1 0.0 0.219 60.98
2020-04-04 16:05 65.46 16.04 18.11 65.46 65.46 4.03 7.78 4.99 242.4 242.9 0.0 0.195 61.02
2020-04-04 16:10 64.24 15.33 16.08 64.24 64.24 12.95 14.92 10.42 280.5 271.1 0.0 0.1 61.07
2020-04-04 16:15 63.93 15.23 15.68 63.93 63.93 6.35 12.95 8.43 266.3 248.5 0.0 0.127 61.09
2020-04-04 16:20 63.88 14.75 14.9 63.88 63.88 10.98 11.88 8.48 243.2 252.6 0.0 0.089 61.11
2020-04-04 16:25 66.33 14.07 15.78 66.33 66.33 9.57 11.34 8.86 207.7 260.0 0.0 0.225 61.11
2020-04-04 16:30 65.64 13.9 14.95 65.64 65.64 11.88 12.42 8.7 252.7 244.4 0.0 0.192 61.07
2020-04-04 16:35 64.49 15.77 16.94 64.49 64.49 8.68 12.06 9.13 258.9 266.6 0.0 0.109 61.05
2020-04-04 16:40 65.41 14.96 16.46 65.41 65.41 4.03 10.09 7.07 296.9 279.7 0.0 0.198 61.02
2020-04-04 16:45 65.52 13.84 14.75 65.52 65.52 7.25 9.57 6.91 259.9 288.3 0.0 0.207 61.02
2020-04-04 16:50 66.2 13.94 15.46 66.2 66.2 4.38 7.78 5.61 290.7 237.3 0.0 0.209 61.02
2020-04-04 16:55 66.94 12.92 14.31 66.94 66.94 14.03 15.46 11.01 212.7 264.0 0.0 0.193 61.0
2020-04-04 17:00 66.43 14.55 16.64 66.43 66.43 8.48 15.82 11.14 270.0 252.4 0.0 0.181 61.0
2020-04-04 17:05 66.51 14.41 16.47 66.51 66.51 7.96 16.35 12.12 252.9 256.0 0.0 0.174 61.0
2020-04-04 17:10 66.2 13.6 14.9 66.2 66.2 8.12 9.73 6.71 282.4 265.0 0.0 0.162 61.02
2020-04-04 17:15 65.71 14.45 15.9 65.71 65.71 8.48 13.31 8.21 306.9 268.1 0.0 0.157 61.0
2020-04-04 17:20 66.02 14.41 16.08 66.02 66.02 13.67 14.56 11.23 251.0 263.1 0.0 0.127 60.96
2020-04-04 17:25 65.52 14.07 15.13 65.52 65.52 11.34 16.17 12.68 263.6 260.3 0.0 0.139 60.96
2020-04-04 17:30 66.13 13.97 15.45 66.13 66.13 17.61 17.61 11.99 232.4 244.7 0.0 0.133 60.93
2020-04-04 17:35 66.13 14.38 16.12 66.13 66.13 11.34 16.89 14.16 233.2 241.4 0.0 0.126 60.91
2020-04-04 17:40 64.36 14.65 15.14 64.36 64.36 15.28 16.89 13.38 236.7 238.5 0.0 0.04 60.84
2020-04-04 17:45 63.5 15.26 15.38 63.5 63.5 12.59 15.64 12.12 245.7 238.2 0.0 0.039 60.78
2020-04-04 17:50 65.41 14.72 16.08 65.41 65.41 12.95 14.03 10.25 219.4 242.0 0.0 0.108 60.71
2020-04-04 17:55 65.46 15.03 16.61 65.46 65.46 10.8 15.99 10.56 258.3 238.3 0.0 0.105 60.6
2020-04-04 18:00 65.23 15.16 16.62 65.23 65.23 17.07 17.07 11.25 256.7 249.8 0.0 0.097 60.49
2020-04-04 18:05 64.92 15.06 16.22 64.92 64.92 10.09 16.89 12.1 232.6 239.1 0.0 0.09 60.39
2020-04-04 18:10 64.49 15.2 16.08 64.49 64.49 13.13 13.49 10.87 246.0 246.3 0.0 0.064 60.28
2020-04-04 18:15 64.54 14.89 15.65 64.54 64.54 8.86 14.2 11.68 248.0 251.0 0.0 0.08 60.15
2020-04-04 18:20 64.74 14.69 15.5 64.74 64.74 11.52 12.77 10.25 231.0 242.6 0.0 0.075 60.04
2020-04-04 18:25 64.13 15.47 16.2 64.13 64.13 8.86 15.82 11.39 249.8 236.2 0.0 0.054 59.92
2020-04-04 18:30 64.08 16.22 17.25 64.08 64.08 11.7 13.13 10.18 260.8 254.8 0.0 0.052 59.77
2020-04-04 18:35 63.9 16.15 17.01 63.9 63.9 11.34 13.85 11.14 268.3 260.6 0.0 0.06 59.65
2020-04-04 18:40 64.2 15.64 16.51 64.2 64.2 9.04 12.95 9.82 235.5 254.0 0.0 0.049 59.52
2020-04-04 18:45 64.02 16.8 18.02 64.02 64.02 9.22 13.31 9.8 250.8 251.3 0.0 0.054 59.41
2020-04-04 18:50 63.84 16.22 17.06 63.84 63.84 8.3 13.31 10.67 234.2 233.4 0.0 0.047 59.31
2020-04-04 18:55 63.41 16.12 16.57 63.41 63.41 9.73 11.52 8.99 241.3 231.6 0.0 0.039 59.16
2020-04-04 19:00 62.74 17.0 17.26 62.74 62.74 7.78 10.27 7.54 258.4 247.4 0.0 0.024 59.05
2020-04-04 19:05 62.62 18.83 19.54 62.62 62.62 4.03 7.96 5.59 259.1 268.2 0.0 0.026 58.93
2020-04-04 19:10 61.77 19.51 19.67 61.77 61.77 3.67 6.0 4.27 286.3 264.6 0.0 0.014 58.78
2020-04-04 19:15 61.34 19.45 19.24 61.34 61.34 5.46 6.89 4.88 270.9 267.0 0.0 0.013 58.68
2020-04-04 19:20 60.67 19.68 18.96 60.67 60.67 4.03 6.17 4.79 259.5 258.1 0.0 0.012 58.57
2020-04-04 19:25 60.37 19.72 18.76 60.37 60.37 3.13 4.38 3.6 265.7 252.9 0.0 0.009 58.44
2020-04-04 19:30 59.95 20.98 19.86 59.95 59.95 3.13 3.49 3.04 255.8 262.7 0.0 0.005 58.32
2020-04-04 19:35 59.22 21.25 19.54 59.22 59.22 2.77 3.67 3.04 254.9 257.5 0.0 0.003 58.21
2020-04-04 19:40 58.32 22.24 19.86 58.32 58.32 2.77 2.77 2.44 256.7 259.4 0.0 0.001 58.06
2020-04-04 19:45 57.7 22.82 19.95 57.7 57.7 1.52 2.95 2.21 244.7 256.6 0.0 0.001 57.94
2020-04-04 19:50 56.91 21.93 18.35 56.91 56.91 1.7 2.06 1.63 148.3 163.7 0.0 0.0 57.83
2020-04-04 19:55 56.86 22.55 18.95 56.86 56.86 1.7 2.42 1.99 132.7 141.3 0.0 0.0 57.69
2020-04-04 20:00 56.37 22.31 18.29 56.37 56.37 1.34 1.7 1.5 81.4 102.2 0.0 0.0 57.56
2020-04-04 20:05 55.63 23.33 18.71 55.63 55.63 2.06 2.06 1.68 100.8 88.4 0.0 0.0 57.43
2020-04-04 20:10 55.53 23.6 18.89 55.53 55.53 2.42 2.59 2.1 111.8 102.1 0.0 0.0 57.31
2020-04-04 20:15 54.81 23.67 18.35 54.81 54.81 1.88 2.59 2.1 95.7 106.0 0.0 0.0 57.15
2020-04-04 20:20 53.28 24.69 18.03 53.28 53.28 1.7 2.06 1.57 97.7 86.3 0.0 0.0 57.02
2020-04-04 20:25 53.89 23.98 17.87 53.89 53.89 2.77 2.95 2.59 125.7 110.4 0.0 0.0 56.88
2020-04-04 20:30 52.61 25.0 17.75 52.61 52.61 3.49 3.49 3.06 96.5 114.0 0.0 0.0 56.75
2020-04-04 20:35 51.26 26.09 17.59 51.26 51.26 3.31 3.67 3.33 111.5 108.4 0.0 0.0 56.61
2020-04-04 20:40 50.41 26.6 17.31 50.41 50.41 2.95 3.67 3.29 124.7 105.2 0.0 0.0 56.44
2020-04-04 20:45 49.68 28.61 18.37 49.01 49.68 3.31 4.03 3.42 108.5 101.5 0.0 0.0 56.32
2020-04-04 20:50 50.36 28.27 18.68 50.36 50.36 4.38 4.92 3.58 114.1 97.1 0.0 0.0 56.19
2020-04-04 20:55 50.74 27.73 18.56 50.74 50.74 3.13 5.1 3.76 84.1 98.0 0.0 0.0 56.05
2020-04-04 21:00 49.87 28.82 18.71 49.87 49.87 2.95 3.31 2.82 92.9 97.8 0.0 0.0 55.92
2020-04-04 21:05 49.75 29.12 18.84 49.75 49.75 2.06 3.67 3.0 134.0 97.2 0.0 0.0 55.83
2020-04-04 21:10 49.87 29.19 19.01 49.87 49.87 2.42 2.95 2.44 82.7 92.0 0.0 0.0 55.71
2020-04-04 21:15 50.05 29.22 19.19 50.05 50.05 2.59 3.13 2.62 92.2 81.1 0.0 0.0 55.6
2020-04-04 21:20 50.43 29.05 19.38 50.43 50.43 1.88 3.85 2.62 52.7 79.9 0.0 0.0 55.51
2020-04-04 21:25 50.31 28.99 19.22 50.31 50.31 2.42 3.13 2.26 112.4 111.9 0.0 0.0 55.4
2020-04-04 21:30 50.97 29.9 20.53 50.97 50.97 2.24 2.77 2.35 96.3 109.9 0.0 0.0 55.31
2020-04-04 21:35 52.32 27.12 19.4 52.32 52.32 4.92 4.92 3.29 132.5 132.2 0.0 0.0 55.2
2020-04-04 21:40 54.03 26.57 20.39 54.03 54.03 5.1 5.46 4.81 143.7 151.4 0.0 0.0 55.09
2020-04-04 21:45 53.98 27.15 20.86 53.98 53.98 4.38 6.0 5.12 109.3 151.2 0.0 0.0 55.02
2020-04-04 21:50 55.56 23.41 18.73 55.56 55.56 5.28 8.3 6.53 215.2 196.3 0.0 0.0 54.93
2020-04-04 21:55 55.2 24.4 19.4 55.2 55.2 5.64 5.64 4.09 211.5 196.9 0.0 0.0 54.84
2020-04-04 22:00 54.64 26.1 20.5 54.64 54.64 5.82 7.96 5.55 180.1 194.5 0.0 0.0 54.77
2020-04-04 22:05 54.23 26.13 20.17 54.23 54.23 4.21 6.71 5.21 200.4 190.7 0.0 0.0 54.66
2020-04-04 22:10 53.73 27.59 21.02 53.73 53.73 4.38 5.64 4.32 172.2 185.8 0.0 0.0 54.61
2020-04-04 22:15 53.49 27.8 21.0 53.49 53.49 4.74 5.82 4.76 135.1 167.8 0.0 0.0 54.52
2020-04-04 22:20 53.31 27.97 20.98 53.31 53.31 7.07 7.07 5.26 171.6 167.3 0.0 0.0 54.45
2020-04-04 22:25 53.37 28.1 21.14 53.37 53.37 8.86 8.86 7.14 139.5 163.4 0.0 0.0 54.36
2020-04-04 22:30 51.89 31.81 22.79 51.89 51.89 7.78 8.68 7.14 151.2 153.1 0.0 0.0 54.3
2020-04-04 22:35 51.89 29.6 21.09 51.89 51.89 7.43 9.04 7.7 179.8 163.5 0.0 0.0 54.25
2020-04-04 22:40 51.84 29.22 20.74 51.84 51.84 6.0 7.78 6.78 168.8 172.8 0.0 0.0 54.18
2020-04-04 22:45 51.46 29.8 20.87 51.46 51.46 6.89 8.12 7.05 195.8 179.9 0.0 0.0 54.1
2020-04-04 22:50 51.46 30.82 21.66 51.46 51.46 7.96 8.3 7.36 179.3 182.7 0.0 0.0 54.01
2020-04-04 22:55 50.67 30.92 21.05 50.67 50.67 6.35 7.61 6.62 202.3 194.8 0.0 0.0 53.94
2020-04-04 23:00 50.54 30.48 20.6 50.54 50.54 7.43 7.78 6.58 198.6 201.3 0.0 0.0 53.89
2020-04-04 23:05 50.85 29.53 20.12 50.85 50.85 7.61 8.12 7.14 210.3 204.9 0.0 0.0 53.83
2020-04-04 23:10 51.96 28.61 20.35 51.96 51.96 9.4 10.45 8.79 211.7 211.7 0.0 0.0 53.76
2020-04-04 23:15 52.09 29.9 21.5 52.09 52.09 9.91 10.8 9.22 228.6 210.6 0.0 0.0 53.69
2020-04-04 23:20 52.39 29.77 21.66 52.39 52.39 9.73 12.06 9.95 217.5 218.7 0.0 0.0 53.62
2020-04-04 23:25 52.7 29.87 22.01 52.7 52.7 8.68 12.95 10.42 216.2 226.5 0.0 0.0 53.56
2020-04-04 23:30 51.96 30.28 21.69 51.96 51.96 8.3 11.34 9.4 217.2 221.0 0.0 0.0 53.47
2020-04-04 23:35 51.17 30.45 21.13 51.17 51.17 9.57 10.8 8.52 218.4 213.4 0.0 0.0 53.4
2020-04-04 23:40 50.74 30.86 21.07 50.74 50.74 9.04 11.52 9.04 206.8 214.7 0.0 0.0 53.35
2020-04-04 23:45 50.36 31.54 21.25 50.36 50.36 9.4 10.45 8.86 219.6 213.8 0.0 0.0 53.28
2020-04-04 23:50 49.14 34.6 22.36 45.86 49.14 7.61 10.8 7.4 208.1 208.1 0.0 0.0 53.2
2020-04-04 23:55 49.44 33.51 21.88 45.0 49.44 10.98 11.16 8.01 213.9 208.2 0.0 0.0 53.13
2020-04-05 00:00 50.25 31.71 21.28 50.25 50.25 10.63 10.8 9.17 206.7 207.3 0.0 0.0 53.06
2020-04-05 00:05 50.97 31.71 21.91 50.97 50.97 8.68 11.88 9.87 224.7 211.2 0.0 0.0 52.99
2020-04-05 00:10 50.86 32.83 22.64 50.86 50.86 11.16 11.52 9.78 218.7 218.3 0.0 0.0 52.92
2020-04-05 00:15 50.74 33.92 23.31 50.74 50.74 9.57 12.59 9.33 209.2 212.5 0.0 0.0 52.84
2020-04-05 00:20 50.13 34.53 23.19 50.13 50.13 8.48 9.57 8.3 229.0 221.1 0.0 0.0 52.77
2020-04-05 00:25 50.49 34.67 23.61 50.49 50.49 7.78 11.52 8.19 210.9 220.6 0.0 0.0 52.72
2020-04-05 00:30 50.61 34.5 23.6 50.61 50.61 6.71 10.98 8.3 222.3 223.4 0.0 0.0 52.65
2020-04-05 00:35 49.64 35.72 23.57 47.41 49.64 5.64 7.43 6.08 192.8 214.2 0.0 0.0 52.57
2020-04-05 00:40 49.33 36.47 23.79 46.41 49.33 6.89 9.04 6.58 212.7 208.4 0.0 0.0 52.5
2020-04-05 00:45 49.39 37.18 24.3 46.16 49.39 7.61 10.63 7.72 212.7 211.0 0.0 0.0 52.43
2020-04-05 00:50 48.83 38.1 24.39 45.89 48.83 6.71 8.48 7.29 210.0 212.2 0.0 0.0 52.38
2020-04-05 00:55 47.98 39.7 24.62 44.79 47.98 6.89 8.3 6.71 201.7 205.7 0.0 0.0 52.3
2020-04-05 01:00 47.12 40.99 24.61 43.84 47.12 6.71 7.25 6.35 217.0 205.9 0.0 0.0 52.23
2020-04-05 01:05 47.07 40.86 24.48 43.34 47.07 7.61 8.3 6.98 211.3 208.5 0.0 0.0 52.16
2020-04-05 01:10 46.58 41.23 24.26 43.19 46.58 6.71 7.25 6.42 215.9 203.4 0.0 0.0 52.09
2020-04-05 01:15 46.53 41.71 24.49 43.41 46.53 6.17 7.78 6.51 183.6 198.5 0.0 0.0 52.02
2020-04-05 01:20 44.46 43.38 23.55 40.09 44.46 7.78 7.78 5.28 183.5 176.9 0.0 0.0 51.96
2020-04-05 01:25 45.07 42.84 23.8 42.1 45.07 5.46 8.86 6.29 188.7 181.6 0.0 0.0 51.87
2020-04-05 01:30 44.46 43.04 23.36 41.26 44.46 5.64 6.71 6.11 167.9 179.1 0.0 0.0 51.8
2020-04-05 01:35 43.54 43.11 22.56 40.41 43.54 5.28 6.71 5.82 164.9 169.3 0.0 0.0 51.75
2020-04-05 01:40 42.75 43.93 22.29 39.12 42.75 5.82 6.17 5.5 160.4 163.6 0.0 0.0 51.67
2020-04-05 01:45 41.22 47.19 22.59 37.3 41.22 5.82 6.17 5.59 155.0 158.6 0.0 0.0 51.6
2020-04-05 01:50 41.22 47.7 22.85 36.74 41.22 6.71 7.61 6.76 155.4 154.4 0.0 0.0 51.53
2020-04-05 01:55 41.04 48.89 23.27 36.22 41.04 7.25 7.43 6.76 154.4 151.9 0.0 0.0 51.46
2020-04-05 02:00 41.04 48.59 23.12 36.74 41.04 6.35 7.78 6.8 161.4 155.7 0.0 0.0 51.39
2020-04-05 02:05 40.68 48.87 22.93 36.42 40.68 6.17 7.07 6.4 158.9 158.7 0.0 0.0 51.28
2020-04-05 02:10 40.57 48.97 22.88 36.07 40.57 6.53 6.53 6.02 157.8 158.6 0.0 0.0 51.22
2020-04-05 02:15 41.11 47.99 22.89 37.67 41.11 5.1 6.53 5.77 178.0 162.1 0.0 0.0 51.13
2020-04-05 02:20 41.43 47.04 22.71 38.61 41.43 4.38 6.0 4.74 162.1 168.8 0.0 0.0 51.06
2020-04-05 02:25 41.0 48.64 23.11 39.32 41.0 3.13 4.03 3.42 149.3 149.7 0.0 0.0 50.99
2020-04-05 02:30 41.0 48.5 23.05 41.0 41.0 2.42 3.49 2.93 140.7 150.9 0.0 0.0 50.92
2020-04-05 02:35 40.26 49.69 22.94 37.74 40.26 3.85 4.21 3.24 150.3 145.3 0.0 0.0 50.85
2020-04-05 02:40 39.04 52.76 23.23 35.1 39.04 5.28 5.28 4.45 148.1 151.2 0.0 0.0 50.77
2020-04-05 02:45 39.04 52.76 23.23 34.97 39.04 5.46 5.46 5.17 157.7 154.7 0.0 0.0 50.7
2020-04-05 02:50 39.42 52.32 23.39 35.28 39.42 5.64 6.35 5.66 154.7 158.6 0.0 0.0 50.61
2020-04-05 02:55 39.96 51.71 23.61 36.18 39.96 5.28 5.82 5.17 163.2 162.0 0.0 0.0 50.54
2020-04-05 03:00 40.46 50.52 23.52 37.19 40.46 4.74 5.82 4.94 167.4 163.6 0.0 0.0 50.47
2020-04-05 03:05 41.0 50.38 23.95 41.0 41.0 1.7 4.74 3.56 178.3 168.8 0.0 0.0 50.4
2020-04-05 03:10 40.51 50.48 23.55 37.7 40.51 4.21 4.21 1.86 166.4 163.2 0.0 0.0 50.32
2020-04-05 03:15 40.95 48.95 23.22 36.21 40.95 7.07 7.07 5.61 168.1 158.0 0.0 0.0 50.25
2020-04-05 03:20 40.89 50.66 23.99 36.68 40.89 6.17 6.35 5.48 133.8 144.1 0.0 0.0 50.18
2020-04-05 03:25 40.96 50.9 24.17 36.77 40.96 6.17 6.89 6.11 136.0 134.7 0.0 0.0 50.11
2020-04-05 03:30 41.94 48.79 24.05 37.71 41.94 6.53 7.07 6.46 136.4 134.7 0.0 0.0 50.04
2020-04-05 03:35 43.65 43.92 23.11 39.56 43.65 6.89 7.96 6.87 121.3 137.0 0.0 0.0 49.96
2020-04-05 03:40 43.21 44.87 23.22 41.47 43.21 3.49 6.35 4.59 133.1 114.0 0.0 0.0 49.89
2020-04-05 03:45 42.24 45.82 22.83 40.54 42.24 3.31 4.21 3.44 111.5 123.7 0.0 0.0 49.82
2020-04-05 03:50 41.68 46.71 22.78 37.97 41.68 5.64 6.35 4.61 129.1 126.1 0.0 0.0 49.75
2020-04-05 03:55 41.63 47.49 23.12 38.03 41.63 5.46 6.71 5.55 112.4 118.8 0.0 0.0 49.71
2020-04-05 04:00 41.94 45.99 22.64 37.12 41.94 7.61 7.61 6.11 131.9 127.7 0.0 0.0 49.64
2020-04-05 04:05 43.52 43.47 22.75 39.51 43.52 6.71 8.3 7.56 135.1 134.9 0.0 0.0 49.57
2020-04-05 04:10 43.65 42.93 22.56 39.76 43.65 6.53 8.3 7.34 132.2 135.6 0.0 0.0 49.53
2020-04-05 04:15 44.31 41.5 22.36 40.0 44.31 7.61 8.86 7.54 133.6 135.4 0.0 0.0 49.46
2020-04-05 04:20 44.06 41.8 22.31 39.78 44.06 7.43 9.73 7.61 132.1 133.4 0.0 0.0 49.42
2020-04-05 04:25 43.83 43.09 22.82 40.29 43.83 6.0 8.86 7.25 130.5 133.4 0.0 0.0 49.35
2020-04-05 04:30 43.27 43.33 22.44 39.85 43.27 5.64 8.3 6.51 132.1 134.2 0.0 0.0 49.32
2020-04-05 04:35 42.96 44.52 22.81 39.61 42.96 5.46 6.71 5.93 114.4 131.1 0.0 0.0 49.26
2020-04-05 04:40 42.53 44.66 22.49 38.12 42.53 7.07 7.25 6.15 124.3 125.6 0.0 0.0 49.21
2020-04-05 04:45 42.71 44.83 22.74 38.85 42.71 6.17 7.25 6.38 140.5 133.9 0.0 0.0 49.15
2020-04-05 04:50 42.35 45.1 22.55 38.76 42.35 5.64 7.07 5.82 134.9 133.1 0.0 0.0 49.1
2020-04-05 04:55 42.28 45.34 22.61 38.68 42.28 5.64 6.17 5.41 148.7 135.4 0.0 0.0 49.05
2020-04-05 05:00 42.4 44.76 22.42 39.2 42.4 5.1 6.35 5.57 143.8 136.9 0.0 0.0 49.01
2020-04-05 05:05 42.22 46.33 23.08 38.86 42.22 5.28 6.17 5.48 131.4 132.1 0.0 0.0 48.96
2020-04-05 05:10 41.92 46.73 23.0 38.76 41.92 4.92 5.82 4.85 127.2 127.4 0.0 0.0 48.9
2020-04-05 05:15 41.85 47.62 23.39 38.41 41.85 5.28 7.25 5.88 109.6 121.2 0.0 0.0 48.87
2020-04-05 05:20 40.51 48.71 22.7 37.25 40.51 4.74 8.12 5.26 113.7 109.0 0.0 0.0 48.83
2020-04-05 05:25 40.51 49.08 22.88 38.57 40.51 3.31 5.28 3.4 84.5 95.1 0.0 0.0 48.76
2020-04-05 05:30 39.96 49.32 22.48 39.96 39.96 2.42 3.31 2.46 45.9 69.1 0.0 0.0 48.72
2020-04-05 05:35 39.9 49.93 22.72 39.9 39.9 2.24 3.13 2.24 43.4 49.5 0.0 0.0 48.67
2020-04-05 05:40 39.78 50.38 22.82 39.78 39.78 2.59 2.77 2.15 103.7 66.8 0.0 0.0 48.63
2020-04-05 05:45 39.54 50.28 22.56 37.67 39.54 3.13 3.13 2.21 93.1 104.2 0.0 0.0 48.58
2020-04-05 05:50 38.32 51.78 22.12 34.39 38.32 5.1 5.28 4.0 110.8 110.6 0.0 0.0 48.52
2020-04-05 05:55 38.19 52.49 22.33 33.7 38.19 5.82 5.82 4.38 119.2 110.6 0.0 0.0 48.45
2020-04-05 06:00 38.14 52.67 22.36 36.07 38.14 3.13 6.0 3.49 71.8 106.8 0.0 0.0 48.36
2020-04-05 06:05 38.44 51.96 22.32 34.68 38.44 4.92 5.46 4.32 116.1 115.9 0.0 0.0 48.34
2020-04-05 06:10 39.18 50.87 22.5 33.78 39.18 7.61 7.61 5.88 123.7 125.9 0.0 0.0 48.27
2020-04-05 06:15 39.43 50.53 22.57 35.18 39.43 5.82 7.96 6.71 127.9 125.6 0.0 0.0 48.2
2020-04-05 06:20 38.44 51.89 22.29 35.83 38.44 3.67 6.35 5.35 108.0 121.2 0.0 0.0 48.13
2020-04-05 06:25 37.96 52.84 22.27 35.46 37.96 3.49 4.92 4.12 114.5 111.2 0.0 0.0 48.09
2020-04-05 06:30 37.6 53.69 22.31 37.6 37.6 1.7 4.03 2.3 52.0 91.2 0.0 0.0 48.02
2020-04-05 06:35 37.47 54.95 22.74 37.47 37.47 2.95 2.95 2.06 7.7 27.9 0.0 0.0 47.97
2020-04-05 06:40 37.72 53.52 22.35 37.72 37.72 2.59 3.67 2.84 9.1 14.4 0.0 0.0 47.91
2020-04-05 06:45 38.64 51.96 22.5 38.64 38.64 2.24 3.85 2.75 30.2 12.3 0.0 0.0 47.84
2020-04-05 06:50 38.82 51.24 22.34 38.82 38.82 2.95 3.31 2.44 73.7 51.4 0.0 0.001 47.79
2020-04-05 06:55 38.21 52.37 22.29 35.2 38.21 4.03 4.56 3.09 83.6 79.4 0.0 0.002 47.73
2020-04-05 07:00 38.08 52.5 22.23 36.01 38.08 3.13 4.38 3.49 89.8 100.3 0.0 0.002 47.68
2020-04-05 07:05 37.72 53.49 22.34 37.72 37.72 2.59 4.38 3.06 82.8 85.4 0.0 0.003 47.61
2020-04-05 07:10 37.53 53.49 22.15 37.53 37.53 2.59 3.49 2.77 69.8 73.4 0.0 0.004 47.55
2020-04-05 07:15 38.14 52.5 22.28 38.14 38.14 2.77 5.64 3.33 108.4 86.1 0.0 0.005 47.5
2020-04-05 07:20 38.57 51.34 22.15 33.68 38.57 6.53 6.53 4.81 71.1 103.9 0.0 0.007 47.43
2020-04-05 07:25 39.67 49.27 22.19 36.72 39.67 4.21 7.78 5.53 126.3 103.3 0.0 0.01 47.37
2020-04-05 07:30 41.02 46.95 22.29 37.7 41.02 4.92 7.43 5.26 139.7 107.6 0.0 0.013 47.32
2020-04-05 07:35 42.06 45.56 22.53 39.65 42.06 4.03 6.0 4.9 68.5 104.9 0.0 0.02 47.26
2020-04-05 07:40 42.98 43.41 22.22 39.51 42.98 5.64 7.61 5.01 126.0 102.3 0.0 0.026 47.21
2020-04-05 07:45 43.66 42.6 22.4 38.33 43.66 9.57 10.63 7.34 132.6 126.6 0.0 0.028 47.17
2020-04-05 07:50 44.28 42.19 22.72 40.52 44.28 6.53 9.91 7.96 103.7 121.2 0.0 0.031 47.14
2020-04-05 07:55 45.12 41.51 23.1 41.34 45.12 6.89 8.3 7.31 137.4 127.6 0.0 0.042 47.1
2020-04-05 08:00 45.86 40.76 23.33 41.64 45.86 8.12 10.63 8.23 136.6 125.7 0.0 0.05 47.08
2020-04-05 08:05 46.89 39.43 23.47 42.45 46.89 9.22 10.98 8.97 134.9 140.0 0.0 0.059 47.05
2020-04-05 08:10 47.44 39.97 24.29 43.58 47.44 8.12 9.4 8.08 141.3 136.4 0.0 0.064 47.03
2020-04-05 08:15 49.33 36.94 24.1 45.81 49.33 8.3 9.22 8.1 147.2 147.3 0.0 0.069 47.01
2020-04-05 08:20 49.93 36.97 24.65 47.47 49.93 6.17 9.4 7.31 142.0 148.0 0.0 0.074 46.99
2020-04-05 08:25 51.51 31.93 22.55 51.51 51.51 10.45 12.24 7.96 173.9 161.6 0.0 0.079 47.01
2020-04-05 08:30 52.3 30.87 22.44 52.3 52.3 12.77 12.77 10.6 166.7 167.9 0.0 0.084 47.03
2020-04-05 08:35 52.48 30.94 22.65 52.48 52.48 13.31 13.31 10.65 188.8 173.0 0.0 0.09 47.07
2020-04-05 08:40 53.28 29.71 22.38 53.28 53.28 12.59 13.49 10.87 192.0 178.8 0.0 0.095 47.08
2020-04-05 08:45 53.19 31.17 23.44 53.19 53.19 8.86 13.49 11.23 183.8 179.8 0.0 0.1 47.1
2020-04-05 08:50 53.74 30.42 23.35 53.74 53.74 9.73 13.49 11.14 173.0 182.1 0.0 0.105 47.16
2020-04-05 08:55 53.98 29.63 22.93 53.98 53.98 10.09 14.74 10.87 177.2 181.4 0.0 0.111 47.21
2020-04-05 09:00 54.45 28.44 22.36 54.45 54.45 12.95 14.92 11.48 171.0 184.9 0.0 0.116 47.26
2020-04-05 09:05 54.45 26.74 20.9 54.45 54.45 14.03 15.46 12.97 180.5 182.7 0.0 0.121 47.3
2020-04-05 09:10 54.81 27.24 21.65 54.81 54.81 12.24 14.92 12.48 153.3 175.1 0.0 0.126 47.35
2020-04-05 09:15 54.55 27.07 21.28 54.55 54.55 12.42 15.99 13.4 169.9 176.1 0.0 0.131 47.43
2020-04-05 09:20 54.43 29.15 22.93 54.43 54.43 10.45 14.92 11.72 193.8 183.7 0.0 0.136 47.5
2020-04-05 09:25 54.81 27.72 22.06 54.81 54.81 12.42 13.85 11.27 169.4 160.2 0.0 0.141 47.57
2020-04-05 09:30 55.04 26.7 21.38 55.04 55.04 12.06 13.13 10.85 176.1 179.5 0.0 0.146 47.66
2020-04-05 09:35 55.11 27.55 22.18 55.11 55.11 9.73 15.82 11.9 178.2 170.2 0.0 0.15 47.75
2020-04-05 09:40 55.29 27.0 21.86 55.29 55.29 11.88 15.28 11.88 187.8 187.6 0.0 0.155 47.86
2020-04-05 09:45 55.29 27.34 22.15 55.29 55.29 10.8 14.03 11.54 167.6 172.4 0.0 0.16 47.97
2020-04-05 09:50 55.58 26.15 21.35 55.58 55.58 9.22 14.56 11.7 179.5 180.2 0.0 0.164 48.09
2020-04-05 09:55 56.26 26.73 22.45 56.26 56.26 11.7 12.59 10.13 186.9 176.5 0.0 0.169 48.2
2020-04-05 10:00 56.26 25.61 21.44 56.26 56.26 7.07 13.67 10.22 151.2 178.2 0.0 0.173 48.34
2020-04-05 10:05 57.34 24.01 20.84 57.34 57.34 11.34 14.2 11.21 169.3 159.0 0.0 0.177 48.47
2020-04-05 10:10 58.03 24.42 21.82 58.03 58.03 10.8 14.03 9.55 182.8 167.3 0.0 0.181 48.6
2020-04-05 10:15 57.52 22.1 19.04 57.52 57.52 12.95 13.85 11.81 207.3 200.4 0.0 0.185 48.72
2020-04-05 10:20 57.16 24.52 21.18 57.16 57.16 8.86 12.24 9.13 172.0 200.9 0.0 0.19 48.88
2020-04-05 10:25 57.78 23.43 20.63 57.78 57.78 9.22 14.38 10.22 183.8 195.8 0.0 0.194 49.05
2020-04-05 10:30 57.78 20.71 17.74 57.78 57.78 8.12 11.16 8.63 211.9 207.2 0.0 0.198 49.23
2020-04-05 10:35 58.5 20.88 18.53 58.5 58.5 7.07 12.59 8.77 194.4 194.6 0.0 0.202 49.41
2020-04-05 10:40 58.44 19.32 16.68 58.44 58.44 12.95 15.28 11.83 186.1 207.9 0.0 0.206 49.62
2020-04-05 10:45 58.08 21.39 18.75 58.08 58.08 9.73 12.42 9.48 203.2 202.8 0.0 0.21 49.8
2020-04-05 10:50 58.68 21.15 18.98 58.68 58.68 9.57 13.85 10.47 178.3 190.6 0.0 0.215 50.02
2020-04-05 10:55 58.75 20.0 17.74 58.75 58.75 11.34 17.61 13.69 214.3 216.1 0.0 0.219 50.23
2020-04-05 11:00 58.55 20.71 18.39 58.55 58.55 6.35 14.92 10.92 225.9 216.0 0.0 0.221 50.45

Data is courtesy of the NM Climate Center. DO NOT USE IN LEGAL PROCEEDINGS.